Time;durP1;ratioP1;P1;durP2;ratioP2;P2;SDS_P1;SDS_P2;PMS_P1;PMS_P2;Temp;Humidity;BMP_temperature;BMP_pressure;BME280_temperature;BME280_humidity;BME280_pressure;Samples;Min_cycle;Max_cycle;Signal;HPM_P1;HPM_P2
2024/03/29 00:01:22;;;;;;;;;;;13.20;78.90;;;;;;20913645;28;19912;-56
2024/03/29 00:11:23;;;;;;;;;;;13.20;79.40;;;;;;20912019;28;20377;-55
2024/03/29 00:21:25;;;;;;;;;;;13.20;79.90;;;;;;20911682;28;19909;-56
2024/03/29 00:31:26;;;;;;;;;;;13.20;80.50;;;;;;20912593;28;19916;-56
2024/03/29 00:41:28;;;;;;;;;;;13.20;80.70;;;;;;20912015;28;19952;-56
2024/03/29 00:51:29;;;;;;;;;;;13.00;81.20;;;;;;20910542;28;19921;-56
2024/03/29 01:01:30;;;;;;;;;;;13.00;81.10;;;;;;20917238;28;19931;-56
2024/03/29 01:11:31;;;;;;;;;;;13.00;81.40;;;;;;20926435;28;19924;-56
2024/03/29 01:21:34;;;;;;;;;;;13.10;81.00;;;;;;20925759;28;20283;-56
2024/03/29 01:31:35;;;;;;;;;;;13.10;80.30;;;;;;20923626;28;19932;-55
2024/03/29 01:41:36;;;;;;;;;;;13.20;78.20;;;;;;20922859;28;19948;-55
2024/03/29 01:51:38;;;;;;;;;;;13.10;78.90;;;;;;20921796;28;19928;-55
2024/03/29 02:01:40;;;;;;;;;;;13.10;79.30;;;;;;20921431;28;19947;-55
2024/03/29 02:11:42;;;;;;;;;;;12.90;79.20;;;;;;20919934;28;20011;-56
2024/03/29 02:21:47;;;;;;;;;;;13.00;77.70;;;;;;20919823;28;19909;-56
2024/03/29 02:31:48;;;;;;;;;;;13.00;77.00;;;;;;20920430;28;20332;-56
2024/03/29 02:41:49;;;;;;;;;;;13.10;76.10;;;;;;20918136;28;19967;-56
2024/03/29 02:51:52;;;;;;;;;;;12.90;76.90;;;;;;20918700;28;20255;-55
2024/03/29 03:01:53;;;;;;;;;;;12.90;76.80;;;;;;20918016;28;20310;-56
2024/03/29 03:11:54;;;;;;;;;;;12.70;75.80;;;;;;20917202;28;19916;-56
2024/03/29 03:21:56;;;;;;;;;;;12.60;76.40;;;;;;20914396;28;20026;-55
2024/03/29 03:31:57;;;;;;;;;;;12.40;76.40;;;;;;20914411;28;19921;-56
2024/03/29 03:41:58;;;;;;;;;;;12.20;75.00;;;;;;20913582;28;19963;-56
2024/03/29 03:51:59;;;;;;;;;;;12.00;75.90;;;;;;20914597;28;19925;-56
2024/03/29 04:02:00;;;;;;;;;;;11.90;75.90;;;;;;20912697;28;19916;-55
2024/03/29 04:12:01;;;;;;;;;;;11.80;76.40;;;;;;20912230;28;19917;-56
2024/03/29 04:22:02;;;;;;;;;;;11.70;76.00;;;;;;20911909;28;19909;-56
2024/03/29 04:32:03;;;;;;;;;;;11.70;76.60;;;;;;20912850;28;20007;-55
2024/03/29 04:42:04;;;;;;;;;;;11.80;76.20;;;;;;20927318;28;19921;-55
2024/03/29 04:52:06;;;;;;;;;;;11.70;76.70;;;;;;20928100;28;20003;-55
2024/03/29 05:02:07;;;;;;;;;;;11.70;76.80;;;;;;20926032;28;19962;-55
2024/03/29 05:12:08;;;;;;;;;;;11.60;76.90;;;;;;20926577;28;19948;-55
2024/03/29 05:22:09;;;;;;;;;;;11.50;76.70;;;;;;20924637;28;19909;-56
2024/03/29 05:32:10;;;;;;;;;;;11.10;78.00;;;;;;20923906;28;19923;-56
2024/03/29 05:42:12;;;;;;;;;;;11.00;77.90;;;;;;20924046;28;20267;-56
2024/03/29 05:52:13;;;;;;;;;;;11.00;78.30;;;;;;20921197;28;19921;-55
2024/03/29 06:02:14;;;;;;;;;;;11.10;77.40;;;;;;20921579;28;19909;-56
2024/03/29 06:12:15;;;;;;;;;;;11.20;76.50;;;;;;20920772;28;20022;-55
2024/03/29 06:22:17;;;;;;;;;;;11.00;76.60;;;;;;20919858;28;19910;-56
2024/03/29 06:32:18;;;;;;;;;;;11.00;75.30;;;;;;20920383;28;20023;-56
2024/03/29 06:42:19;;;;;;;;;;;11.00;75.80;;;;;;20919500;28;19948;-56
2024/03/29 06:52:20;;;;;;;;;;;10.90;75.60;;;;;;20917586;28;19921;-56
2024/03/29 07:02:21;;;;;;;;;;;10.80;76.30;;;;;;20916724;28;19909;-56
2024/03/29 07:12:24;;;;;;;;;;;10.90;75.50;;;;;;20917337;28;20358;-56
2024/03/29 07:22:27;;;;;;;;;;;10.90;76.20;;;;;;20916989;28;19955;-56
2024/03/29 07:32:29;;;;;;;;;;;10.90;76.20;;;;;;20915417;28;20013;-55
2024/03/29 07:42:31;;;;;;;;;;;11.00;76.40;;;;;;20914266;28;19921;-57
2024/03/29 07:52:33;;;;;;;;;;;11.00;76.50;;;;;;20913913;28;19921;-55
2024/03/29 08:02:34;;;;;;;;;;;10.90;77.10;;;;;;20913434;28;19915;-55
2024/03/29 08:12:37;;;;;;;;;;;11.00;76.90;;;;;;20913576;28;20294;-55
2024/03/29 08:22:39;;;;;;;;;;;11.10;76.50;;;;;;20912773;28;20019;-56
2024/03/29 08:32:40;;;;;;;;;;;11.10;75.70;;;;;;20912208;28;19916;-56
2024/03/29 08:42:41;;;;;;;;;;;11.00;75.10;;;;;;20912724;28;20409;-56
2024/03/29 08:52:42;;;;;;;;;;;11.00;75.80;;;;;;20912762;28;19928;-54
2024/03/29 09:02:43;;;;;;;;;;;10.80;77.10;;;;;;20910871;28;19908;-56
2024/03/29 09:12:45;;;;;;;;;;;10.90;76.20;;;;;;20911985;28;20259;-56
2024/03/29 09:22:50;;;;;;;;;;;10.90;76.80;;;;;;20917051;28;19939;-56
2024/03/29 09:32:54;;;;;;;;;;;10.90;76.00;;;;;;20925341;28;20035;-56
2024/03/29 09:43:02;;;;;;;;;;;10.90;75.80;;;;;;20923554;28;19951;-56
2024/03/29 09:53:10;;;;;;;;;;;11.00;76.10;;;;;;20924051;28;19928;-57
2024/03/29 10:03:12;;;;;;;;;;;11.10;74.70;;;;;;20921978;28;19916;-55
2024/03/29 10:13:13;;;;;;;;;;;11.20;73.00;;;;;;20922180;28;20008;-55
2024/03/29 10:23:14;;;;;;;;;;;11.30;73.50;;;;;;20919524;28;19909;-56
2024/03/29 10:33:18;;;;;;;;;;;11.50;72.70;;;;;;20918863;28;19917;-56
2024/03/29 10:43:20;;;;;;;;;;;11.60;72.40;;;;;;20919270;28;19927;-57
2024/03/29 10:53:22;;;;;;;;;;;11.60;72.70;;;;;;20918918;28;20298;-58
2024/03/29 11:03:37;;;;;;;;;;;11.50;72.10;;;;;;20918276;28;19955;-57
2024/03/29 11:13:50;;;;;;;;;;;11.50;72.40;;;;;;20916805;28;20422;-56
2024/03/29 11:23:52;;;;;;;;;;;11.50;72.80;;;;;;20914557;28;19924;-56
2024/03/29 11:33:56;;;;;;;;;;;11.60;72.80;;;;;;20914176;28;19913;-56
2024/03/29 11:43:58;;;;;;;;;;;11.70;73.10;;;;;;20912502;28;19921;-55
2024/03/29 11:53:59;;;;;;;;;;;11.70;72.30;;;;;;20914579;28;20007;-57
2024/03/29 12:04:01;;;;;;;;;;;11.70;71.70;;;;;;20914044;28;20429;-55
2024/03/29 12:14:06;;;;;;;;;;;11.60;71.90;;;;;;20913574;28;19920;-55
2024/03/29 12:24:07;;;;;;;;;;;11.60;72.20;;;;;;20912953;28;20250;-57
2024/03/29 12:34:08;;;;;;;;;;;11.60;73.50;;;;;;20912890;28;19940;-56
2024/03/29 12:44:10;;;;;;;;;;;11.50;73.70;;;;;;20911020;28;19921;-56
2024/03/29 12:54:11;;;;;;;;;;;11.70;74.20;;;;;;20912260;28;19912;-56
2024/03/29 13:04:12;;;;;;;;;;;11.80;74.00;;;;;;20925901;28;19924;-56
2024/03/29 13:14:13;;;;;;;;;;;11.70;73.80;;;;;;20925477;28;19915;-57
2024/03/29 13:24:14;;;;;;;;;;;11.80;74.00;;;;;;20924754;28;19916;-55
2024/03/29 13:34:17;;;;;;;;;;;11.90;73.50;;;;;;20923887;28;19912;-56
2024/03/29 13:44:19;;;;;;;;;;;11.50;73.60;;;;;;20923155;28;19925;-56
2024/03/29 13:54:20;;;;;;;;;;;11.10;72.70;;;;;;20925200;28;19912;-56
2024/03/29 14:04:21;;;;;;;;;;;10.50;73.50;;;;;;20922949;28;20366;-56
2024/03/29 14:14:22;;;;;;;;;;;10.90;73.30;;;;;;20921651;28;19936;-56
2024/03/29 14:24:24;;;;;;;;;;;11.00;72.50;;;;;;20921347;28;19917;-56
2024/03/29 14:34:26;;;;;;;;;;;11.20;72.20;;;;;;20919609;28;19909;-56
2024/03/29 14:44:27;;;;;;;;;;;11.30;71.80;;;;;;20891971;28;19928;-56
2024/03/29 14:54:28;;;;;;;;;;;11.40;71.70;;;;;;20836365;28;19917;-56
2024/03/29 15:04:30;;;;;;;;;;;11.30;71.00;;;;;;20835695;28;20293;-56
2024/03/29 15:14:31;;;;;;;;;;;11.60;70.00;;;;;;20835071;28;19909;-56
2024/03/29 15:24:32;;;;;;;;;;;12.20;69.30;;;;;;20833257;28;19928;-55
2024/03/29 15:34:33;;;;;;;;;;;12.20;67.70;;;;;;20832348;28;19913;-56
2024/03/29 15:44:34;;;;;;;;;;;12.00;67.70;;;;;;20852172;28;19921;-56
2024/03/29 15:54:35;;;;;;;;;;;12.00;66.50;;;;;;20913689;28;20019;-55
2024/03/29 16:04:38;;;;;;;;;;;12.10;65.90;;;;;;20913671;28;20206;-56
2024/03/29 16:14:39;;;;;;;;;;;12.00;66.00;;;;;;20912698;28;19955;-57
2024/03/29 16:24:40;;;;;;;;;;;11.90;66.30;;;;;;20912446;28;19928;-56
2024/03/29 16:34:42;;;;;;;;;;;11.80;64.20;;;;;;20924562;28;20381;-56
2024/03/29 16:44:43;;;;;;;;;;;11.80;64.60;;;;;;20928910;28;19921;-57
2024/03/29 16:54:44;;;;;;;;;;;11.80;65.00;;;;;;20928951;28;20050;-57
2024/03/29 17:04:46;;;;;;;;;;;12.00;63.40;;;;;;20926978;28;19923;-57
2024/03/29 17:14:47;;;;;;;;;;;11.90;64.20;;;;;;20925760;28;20003;-55
2024/03/29 17:24:49;;;;;;;;;;;11.70;65.10;;;;;;20925089;28;19971;-55
2024/03/29 17:34:50;;;;;;;;;;;11.70;66.20;;;;;;20924366;28;19944;-56
2024/03/29 17:44:51;;;;;;;;;;;11.70;67.40;;;;;;20892021;28;20019;-56
2024/03/29 17:54:52;;;;;;;;;;;11.20;68.60;;;;;;20840317;28;19951;-56
2024/03/29 18:04:53;;;;;;;;;;;11.20;69.50;;;;;;20840893;28;19917;-57
2024/03/29 18:14:56;;;;;;;;;;;10.90;69.50;;;;;;20840145;28;19916;-56
2024/03/29 18:24:57;;;;;;;;;;;10.80;68.30;;;;;;20839354;28;19979;-56
2024/03/29 18:34:58;;;;;;;;;;;10.20;69.30;;;;;;20838519;28;20018;-55
2024/03/29 18:45:00;;;;;;;;;;;10.40;68.50;;;;;;20867367;28;19925;-56
2024/03/29 18:55:01;;;;;;;;;;;10.50;68.00;;;;;;20918907;28;19920;-56
2024/03/29 19:05:02;;;;;;;;;;;10.50;68.60;;;;;;20917106;28;19917;-58
2024/03/29 19:15:06;;;;;;;;;;;10.50;68.40;;;;;;20917653;28;19909;-56
2024/03/29 19:25:08;;;;;;;;;;;10.30;69.30;;;;;;20915762;28;19917;-56
2024/03/29 19:35:09;;;;;;;;;;;10.30;69.40;;;;;;20915215;28;20003;-55
2024/03/29 19:45:11;;;;;;;;;;;10.80;70.00;;;;;;20914056;28;19975;-56
2024/03/29 19:55:12;;;;;;;;;;;10.50;69.50;;;;;;20913732;28;19969;-56
2024/03/29 20:05:14;;;;;;;;;;;10.40;69.70;;;;;;20912461;28;19920;-57
2024/03/29 20:15:15;;;;;;;;;;;10.40;70.10;;;;;;20912810;28;19992;-57
2024/03/29 20:25:16;;;;;;;;;;;10.30;70.00;;;;;;20912151;28;19960;-56
2024/03/29 20:35:20;;;;;;;;;;;10.20;69.80;;;;;;20913365;28;20310;-57
2024/03/29 20:45:21;;;;;;;;;;;10.10;69.30;;;;;;20911018;28;19928;-57
2024/03/29 20:55:24;;;;;;;;;;;9.90;69.40;;;;;;20910983;28;19916;-56
2024/03/29 21:05:36;;;;;;;;;;;9.90;70.00;;;;;;20911949;28;20392;-56
2024/03/29 21:15:37;;;;;;;;;;;9.90;69.90;;;;;;20912910;28;19909;-55
2024/03/29 21:25:38;;;;;;;;;;;9.90;70.10;;;;;;20925043;28;19924;-57
2024/03/29 21:35:39;;;;;;;;;;;9.80;70.00;;;;;;20924630;28;20366;-56
2024/03/29 21:45:41;;;;;;;;;;;9.80;70.40;;;;;;20923576;28;20369;-55
2024/03/29 21:55:42;;;;;;;;;;;9.80;70.10;;;;;;20924449;28;20338;-57
2024/03/29 22:05:44;;;;;;;;;;;9.60;70.70;;;;;;20922494;28;19917;-57
2024/03/29 22:15:45;;;;;;;;;;;9.60;70.60;;;;;;20922992;28;20445;-56
2024/03/29 22:25:47;;;;;;;;;;;9.40;70.80;;;;;;20921952;28;19952;-56
2024/03/29 22:35:48;;;;;;;;;;;9.40;70.90;;;;;;20921394;28;20384;-57
2024/03/29 22:45:49;;;;;;;;;;;9.40;71.40;;;;;;20920151;28;19971;-56
2024/03/29 22:55:50;;;;;;;;;;;9.30;71.40;;;;;;20918864;28;20393;-55
2024/03/29 23:05:51;;;;;;;;;;;9.30;71.30;;;;;;20917930;28;19921;-55
2024/03/29 23:15:52;;;;;;;;;;;9.20;71.00;;;;;;20918558;28;20362;-56
2024/03/29 23:25:54;;;;;;;;;;;9.20;71.50;;;;;;20916299;28;19923;-56
2024/03/29 23:35:55;;;;;;;;;;;9.10;71.50;;;;;;20917133;28;20285;-55
2024/03/29 23:45:59;;;;;;;;;;;9.10;71.60;;;;;;20914918;28;19967;-56
2024/03/29 23:56:01;;;;;;;;;;;9.20;71.30;;;;;;20914550;28;19913;-56
